createdAt,value
2022-12-04T00:00:35.474Z,84.66
2022-12-04T00:03:19.269Z,84.57
2022-12-04T00:05:47.131Z,84.99
2022-12-04T00:08:17.032Z,85.30
2022-12-04T00:10:44.388Z,85.46
2022-12-04T00:13:12.023Z,84.99
2022-12-04T00:15:42.279Z,84.80
2022-12-04T00:18:10.243Z,85.39
2022-12-04T00:20:39.734Z,84.96
2022-12-04T00:23:07.667Z,85.38
2022-12-04T00:25:40.975Z,85.25
2022-12-04T00:28:09.970Z,85.67
2022-12-04T00:30:41.122Z,85.50
2022-12-04T00:33:08.906Z,85.54
2022-12-04T00:35:36.155Z,84.94
2022-12-04T00:38:04.025Z,85.22
2022-12-04T00:40:31.477Z,84.98
2022-12-04T00:43:00.748Z,85.50
2022-12-04T00:45:28.102Z,85.77
2022-12-04T00:47:56.197Z,85.58
2022-12-04T00:50:23.600Z,85.83
2022-12-04T00:52:51.407Z,85.59
2022-12-04T00:55:19.342Z,85.02
2022-12-04T00:57:47.304Z,85.09
2022-12-04T01:00:16.966Z,84.75
2022-12-04T01:02:45.065Z,84.66
2022-12-04T01:05:13.063Z,84.72
2022-12-04T01:07:41.103Z,84.68
2022-12-04T01:10:12.254Z,84.86
2022-12-04T01:12:40.179Z,84.80
2022-12-04T01:15:08.556Z,84.98
2022-12-04T01:17:38.075Z,84.22
2022-12-04T01:20:06.555Z,84.75
2022-12-04T01:22:34.182Z,85.14
2022-12-04T01:25:01.681Z,84.41
2022-12-04T01:27:29.454Z,84.08
2022-12-04T01:29:57.063Z,83.80
2022-12-04T01:32:25.465Z,84.27
2022-12-04T01:34:54.201Z,84.39
2022-12-04T01:37:21.933Z,84.53
2022-12-04T01:39:49.275Z,83.82
2022-12-04T01:42:16.988Z,84.15
2022-12-04T01:45:05.142Z,84.57
2022-12-04T01:47:32.868Z,85.08
2022-12-04T01:50:01.984Z,85.16
2022-12-04T01:52:29.800Z,85.21
2022-12-04T01:55:00.812Z,85.35
2022-12-04T01:57:32.531Z,86.50
2022-12-04T02:00:05.050Z,86.26
2022-12-04T02:02:33.849Z,86.90
2022-12-04T02:05:05.854Z,86.99
2022-12-04T02:07:34.053Z,87.14
2022-12-04T02:10:01.697Z,87.14
2022-12-04T02:12:37.222Z,86.53
2022-12-04T02:15:11.930Z,86.22
2022-12-04T02:17:47.735Z,85.89
2022-12-04T02:20:27.105Z,86.21
2022-12-04T02:23:40.379Z,86.15
2022-12-04T02:26:26.573Z,86.17
2022-12-04T02:29:01.776Z,85.45
2022-12-04T02:31:33.935Z,85.38
2022-12-04T02:34:07.403Z,84.83
2022-12-04T02:36:41.747Z,85.31
2022-12-04T02:39:18.192Z,85.65
2022-12-04T02:41:54.333Z,85.74
2022-12-04T02:44:28.828Z,86.38
2022-12-04T02:46:59.468Z,86.14
2022-12-04T02:49:33.228Z,86.74
2022-12-04T02:52:03.140Z,86.86
2022-12-04T02:54:34.879Z,86.60
2022-12-04T02:57:06.405Z,86.49
2022-12-04T02:59:38.018Z,85.62
2022-12-04T03:02:10.695Z,86.24
2022-12-04T03:04:41.122Z,86.20
2022-12-04T03:07:14.939Z,85.44
2022-12-04T03:09:47.142Z,85.20
2022-12-04T03:12:20.478Z,85.51
2022-12-04T03:14:57.482Z,85.87
2022-12-04T03:17:31.022Z,85.68
2022-12-04T03:20:02.535Z,85.81
2022-12-04T03:22:34.424Z,86.93
2022-12-04T03:25:05.038Z,87.19
2022-12-04T03:27:39.819Z,87.77
2022-12-04T03:30:12.350Z,87.87
2022-12-04T03:32:46.824Z,87.94
2022-12-04T03:35:19.162Z,87.54
2022-12-04T03:37:55.199Z,86.98
2022-12-04T03:40:26.895Z,86.88
2022-12-04T03:43:02.238Z,86.78
2022-12-04T03:45:39.804Z,86.88
2022-12-04T03:48:18.163Z,86.92
2022-12-04T03:50:57.062Z,86.62
2022-12-04T03:53:31.064Z,86.00
2022-12-04T03:56:07.618Z,85.44
2022-12-04T03:58:38.347Z,85.51
2022-12-04T04:01:10.044Z,85.35
2022-12-04T04:03:43.471Z,84.88
2022-12-04T04:06:16.445Z,85.13
2022-12-04T04:08:48.755Z,85.22
2022-12-04T04:11:22.130Z,85.79
2022-12-04T04:13:52.441Z,86.25
2022-12-04T04:16:23.331Z,87.11
2022-12-04T04:18:52.502Z,87.41
2022-12-04T04:21:27.547Z,88.33
2022-12-04T04:23:55.366Z,88.83
2022-12-04T04:26:26.761Z,88.25
2022-12-04T04:28:54.094Z,88.07
2022-12-04T04:31:30.586Z,87.98
2022-12-04T04:34:04.800Z,88.27
2022-12-04T04:36:39.914Z,87.57
2022-12-04T04:39:15.683Z,87.14
2022-12-04T04:41:48.694Z,86.37
2022-12-04T04:44:20.563Z,84.64
2022-12-04T04:46:54.530Z,83.30
2022-12-04T04:49:25.940Z,82.76
2022-12-04T04:51:54.740Z,82.66
2022-12-04T04:54:23.009Z,83.00
2022-12-04T04:56:51.061Z,83.32
2022-12-04T04:59:21.474Z,84.77
2022-12-04T05:01:50.814Z,85.92
2022-12-04T05:04:18.202Z,86.79
2022-12-04T05:06:46.368Z,87.63
2022-12-04T05:09:13.671Z,87.52
2022-12-04T05:11:42.515Z,87.91
2022-12-04T05:14:09.860Z,87.15
2022-12-04T05:16:39.129Z,86.61
2022-12-04T05:19:07.862Z,86.29
2022-12-04T05:21:35.659Z,87.25
2022-12-04T05:24:03.062Z,87.59
2022-12-04T05:26:30.614Z,87.35
2022-12-04T05:28:57.975Z,86.33
2022-12-04T05:31:25.824Z,86.04
2022-12-04T05:33:53.057Z,85.57
2022-12-04T05:36:22.331Z,85.11
2022-12-04T05:38:49.691Z,85.39
2022-12-04T05:41:17.519Z,86.15
2022-12-04T05:43:44.907Z,86.86
2022-12-04T05:46:12.543Z,87.37
2022-12-04T05:48:39.916Z,88.40
2022-12-04T05:51:08.734Z,88.72
2022-12-04T05:53:38.498Z,88.41
2022-12-04T05:56:07.619Z,89.45
2022-12-04T05:58:35.936Z,89.87
2022-12-04T06:01:09.422Z,89.39
2022-12-04T06:03:36.904Z,89.73
2022-12-04T06:06:05.151Z,89.85
2022-12-04T06:08:32.506Z,89.67
2022-12-04T06:11:03.142Z,89.24
2022-12-04T06:13:30.422Z,89.44
2022-12-04T06:15:58.627Z,89.71
2022-12-04T06:18:25.984Z,90.10
2022-12-04T06:20:57.853Z,90.48
2022-12-04T06:23:25.201Z,90.37
2022-12-04T06:25:52.831Z,91.02
2022-12-04T06:28:21.666Z,90.28
2022-12-04T06:30:49.862Z,90.58
2022-12-04T06:33:17.117Z,90.07
2022-12-04T06:35:45.212Z,90.06
2022-12-04T06:38:12.629Z,89.60
2022-12-04T06:40:40.907Z,90.22
2022-12-04T06:43:08.145Z,89.27
2022-12-04T06:45:37.338Z,88.38
2022-12-04T06:48:05.021Z,86.90
2022-12-04T06:50:32.991Z,85.84
2022-12-04T06:53:03.566Z,85.31
2022-12-04T06:55:35.668Z,84.53
2022-12-04T06:58:02.867Z,84.20
2022-12-04T07:00:31.215Z,85.06
2022-12-04T07:02:59.998Z,85.20
2022-12-04T07:05:27.877Z,84.57
2022-12-04T07:07:55.353Z,83.99
2022-12-04T07:10:23.334Z,84.26
2022-12-04T07:12:50.606Z,85.73
2022-12-04T07:15:18.325Z,86.44
2022-12-04T07:17:45.572Z,87.36
2022-12-04T07:20:15.667Z,88.06
2022-12-04T07:22:43.507Z,87.56
2022-12-04T07:25:11.261Z,87.14
2022-12-04T07:27:46.851Z,86.39
2022-12-04T07:30:16.063Z,86.31
2022-12-04T07:32:43.606Z,85.83
2022-12-04T07:35:13.124Z,85.31
2022-12-04T07:37:41.812Z,85.06
2022-12-04T07:40:10.672Z,84.79
2022-12-04T07:42:37.941Z,84.50
2022-12-04T07:45:06.702Z,84.36
2022-12-04T07:47:35.433Z,85.02
2022-12-04T07:50:03.446Z,83.82
2022-12-04T07:52:31.101Z,84.47
2022-12-04T07:55:00.631Z,84.34
2022-12-04T07:57:28.459Z,85.33
2022-12-04T07:59:56.626Z,86.61
2022-12-04T08:02:24.149Z,87.31
2022-12-04T08:04:52.292Z,87.41
2022-12-04T08:07:19.896Z,87.82
2022-12-04T08:09:47.914Z,88.11
2022-12-04T08:12:16.812Z,87.96
2022-12-04T08:14:44.845Z,87.45
2022-12-04T08:17:12.589Z,86.50
2022-12-04T08:19:40.736Z,86.28
2022-12-04T08:22:08.052Z,85.66
2022-12-04T08:24:36.190Z,86.80
2022-12-04T08:27:04.240Z,86.79
2022-12-04T08:29:33.499Z,86.50
2022-12-04T08:32:03.851Z,86.26
2022-12-04T08:34:32.517Z,86.20
2022-12-04T08:37:01.455Z,86.10
2022-12-04T08:39:29.355Z,86.07
2022-12-04T08:41:58.564Z,85.99
2022-12-04T08:44:26.307Z,86.41
2022-12-04T08:46:55.041Z,86.50
2022-12-04T08:49:22.876Z,86.70
2022-12-04T08:51:50.156Z,86.82
2022-12-04T08:54:17.840Z,86.81
2022-12-04T08:56:47.740Z,87.13
2022-12-04T08:59:15.511Z,86.65
2022-12-04T09:01:42.955Z,86.06
2022-12-04T09:04:12.281Z,86.41
2022-12-04T09:06:39.700Z,86.11
2022-12-04T09:09:07.823Z,86.76
2022-12-04T09:11:35.296Z,85.94
2022-12-04T09:14:03.428Z,85.45
2022-12-04T09:16:31.228Z,84.90
2022-12-04T09:18:59.155Z,84.19
2022-12-04T09:21:28.425Z,83.37
2022-12-04T09:23:56.130Z,84.15
2022-12-04T09:26:25.836Z,82.79
2022-12-04T09:28:54.951Z,83.48
2022-12-04T09:31:23.443Z,83.04
2022-12-04T09:33:52.178Z,83.06
2022-12-04T09:36:20.479Z,83.22
2022-12-04T09:38:51.623Z,83.83
2022-12-04T09:41:59.364Z,84.05
2022-12-04T09:44:31.788Z,83.08
2022-12-04T09:47:02.298Z,83.34
2022-12-04T09:49:37.241Z,83.00
2022-12-04T09:52:22.175Z,81.95
2022-12-04T09:54:51.775Z,82.06
2022-12-04T09:57:25.838Z,82.50
2022-12-04T09:59:54.772Z,83.16
2022-12-04T10:02:37.477Z,83.45
2022-12-04T10:05:12.156Z,83.17
2022-12-04T10:07:46.944Z,83.00
2022-12-04T10:10:25.112Z,82.35
2022-12-04T10:13:01.696Z,81.92
2022-12-04T10:15:35.261Z,82.26
2022-12-04T10:18:19.431Z,79.97
2022-12-04T10:21:02.286Z,79.45
2022-12-04T10:23:47.464Z,79.04
2022-12-04T10:26:19.265Z,78.52
2022-12-04T10:28:55.428Z,78.76
2022-12-04T10:31:26.532Z,78.61
2022-12-04T10:33:57.147Z,79.85
2022-12-04T10:36:31.717Z,80.11
2022-12-04T10:39:02.570Z,80.78
2022-12-04T10:41:40.981Z,79.71
2022-12-04T10:44:15.715Z,78.91
2022-12-04T10:46:46.279Z,77.32
2022-12-04T10:49:18.884Z,77.61
2022-12-04T10:51:47.582Z,78.22
2022-12-04T10:54:20.509Z,78.16
2022-12-04T10:56:54.461Z,76.92
2022-12-04T10:59:22.089Z,78.01
2022-12-04T11:01:52.410Z,77.81
2022-12-04T11:04:24.384Z,78.05
2022-12-04T11:07:00.134Z,78.62
2022-12-04T11:09:27.979Z,77.82
2022-12-04T11:12:06.383Z,77.17
2022-12-04T11:14:33.831Z,76.92
2022-12-04T11:17:06.446Z,76.51
2022-12-04T11:19:35.995Z,76.72
2022-12-04T11:22:15.343Z,77.48
2022-12-04T11:24:49.604Z,77.66
2022-12-04T11:27:24.056Z,79.03
2022-12-04T11:29:51.959Z,79.45
2022-12-04T11:32:23.345Z,79.27
2022-12-04T11:34:52.204Z,78.55
2022-12-04T11:37:23.006Z,78.98
2022-12-04T11:39:52.282Z,78.92
2022-12-04T11:42:25.424Z,79.42
2022-12-04T11:44:54.390Z,79.48
2022-12-04T11:47:24.755Z,78.66
2022-12-04T11:50:01.948Z,78.74
2022-12-04T11:52:42.650Z,79.91
2022-12-04T11:55:17.857Z,79.23
2022-12-04T11:57:51.882Z,79.18
2022-12-04T12:00:21.889Z,79.10
2022-12-04T12:03:02.311Z,79.06
2022-12-04T12:05:50.733Z,79.00
2022-12-04T12:08:29.194Z,79.69
2022-12-04T12:11:04.815Z,80.62
2022-12-04T12:13:48.699Z,79.53
2022-12-04T12:16:25.032Z,78.88
2022-12-04T12:19:05.209Z,79.48
2022-12-04T12:21:39.617Z,79.46
2022-12-04T12:24:23.751Z,79.67
2022-12-04T12:27:00.141Z,80.63
2022-12-04T12:29:43.881Z,80.41
2022-12-04T12:32:23.314Z,80.05
2022-12-04T12:34:52.565Z,80.67
2022-12-04T12:37:26.199Z,80.66
2022-12-04T12:40:00.120Z,80.47
2022-12-04T12:42:32.857Z,80.21
2022-12-04T12:45:06.842Z,80.49
2022-12-04T12:47:40.524Z,80.50
2022-12-04T12:50:15.646Z,80.40
2022-12-04T12:52:47.789Z,80.50
2022-12-04T12:55:20.772Z,80.98
2022-12-04T12:57:55.667Z,81.15
2022-12-04T13:00:26.465Z,81.25
2022-12-04T13:02:59.302Z,81.39
2022-12-04T13:05:33.809Z,82.45
2022-12-04T13:08:09.896Z,82.21
2022-12-04T13:10:43.503Z,82.12
2022-12-04T13:13:17.810Z,81.48
2022-12-04T13:15:52.329Z,82.21
2022-12-04T13:18:25.182Z,83.07
2022-12-04T13:20:56.991Z,82.67
2022-12-04T13:23:43.461Z,82.89
2022-12-04T13:26:20.300Z,82.66
2022-12-04T13:28:54.778Z,82.66
2022-12-04T13:31:35.676Z,82.40
2022-12-04T13:34:26.782Z,82.03
2022-12-04T13:37:07.858Z,81.86
2022-12-04T13:40:28.018Z,81.64
2022-12-04T13:43:19.187Z,81.78
2022-12-04T13:45:50.732Z,82.79
2022-12-04T13:48:34.044Z,82.38
2022-12-04T13:51:07.154Z,83.35
2022-12-04T13:53:37.066Z,83.31
2022-12-04T13:56:09.418Z,82.36
2022-12-04T13:58:38.965Z,82.89
2022-12-04T14:01:08.834Z,83.81
2022-12-04T14:03:46.881Z,84.76
2022-12-04T14:06:23.211Z,84.47
2022-12-04T14:08:56.969Z,84.46
2022-12-04T14:11:25.996Z,84.01
2022-12-04T14:13:56.030Z,84.56
2022-12-04T14:16:27.053Z,84.62
2022-12-04T14:18:59.582Z,84.89
2022-12-04T14:21:39.523Z,85.76
2022-12-04T14:24:17.075Z,86.32
2022-12-04T14:27:10.786Z,86.36
2022-12-04T14:29:48.028Z,86.38
2022-12-04T14:32:21.564Z,87.09
2022-12-04T14:34:51.846Z,86.39
2022-12-04T14:37:25.721Z,87.07
2022-12-04T14:39:55.763Z,87.11
2022-12-04T14:42:26.294Z,87.94
2022-12-04T14:44:56.740Z,88.14
2022-12-04T14:47:42.779Z,88.35
2022-12-04T14:50:37.473Z,88.09
2022-12-04T14:53:17.048Z,88.19
2022-12-04T14:55:55.844Z,88.16
2022-12-04T14:58:24.006Z,88.62
2022-12-04T15:00:53.810Z,89.07
2022-12-04T15:03:22.309Z,88.17
2022-12-04T15:06:01.014Z,88.21
2022-12-04T15:08:28.443Z,88.08
2022-12-04T15:10:56.578Z,89.06
2022-12-04T15:13:30.832Z,88.99
2022-12-04T15:16:07.909Z,89.28
2022-12-04T15:18:39.550Z,89.54
2022-12-04T15:21:11.128Z,89.34
2022-12-04T15:23:40.954Z,89.55
2022-12-04T15:26:13.255Z,89.55
2022-12-04T15:28:44.835Z,90.14
2022-12-04T15:31:17.738Z,89.47
2022-12-04T15:33:47.509Z,90.79
2022-12-04T15:36:23.989Z,91.49
2022-12-04T15:38:53.804Z,91.96
2022-12-04T15:41:30.825Z,91.16
2022-12-04T15:43:59.172Z,89.97
2022-12-04T15:46:32.606Z,90.64
2022-12-04T15:49:15.837Z,91.54
2022-12-04T15:51:47.345Z,91.02
2022-12-04T15:54:21.680Z,91.40
2022-12-04T15:57:01.229Z,90.65
2022-12-04T15:59:31.412Z,91.33
2022-12-04T16:02:06.324Z,91.20
2022-12-04T16:04:34.946Z,91.52
2022-12-04T16:07:04.478Z,91.13
2022-12-04T16:09:32.069Z,91.61
2022-12-04T16:12:03.277Z,91.68
2022-12-04T16:14:30.914Z,92.31
2022-12-04T16:17:06.350Z,92.42
2022-12-04T16:19:36.026Z,92.18
2022-12-04T16:22:11.224Z,92.34
2022-12-04T16:24:39.264Z,92.00
2022-12-04T16:27:11.965Z,92.02
2022-12-04T16:29:39.604Z,92.21
2022-12-04T16:32:11.265Z,91.85
2022-12-04T16:34:39.203Z,93.42
2022-12-04T16:37:12.577Z,94.12
2022-12-04T16:39:41.638Z,94.08
2022-12-04T16:42:15.959Z,94.25
2022-12-04T16:44:44.224Z,93.87
2022-12-04T16:47:13.383Z,95.01
2022-12-04T16:49:41.934Z,95.65
2022-12-04T16:52:12.388Z,96.14
2022-12-04T16:54:40.886Z,97.26
2022-12-04T16:57:09.629Z,96.69
2022-12-04T16:59:37.773Z,96.68
2022-12-04T17:02:15.733Z,96.94
2022-12-04T17:04:44.044Z,96.62
2022-12-04T17:07:14.107Z,96.34
2022-12-04T17:09:41.738Z,97.00
2022-12-04T17:12:09.593Z,96.63
2022-12-04T17:14:36.988Z,95.94
2022-12-04T17:17:04.909Z,96.27
2022-12-04T17:19:32.491Z,96.43
2022-12-04T17:22:00.770Z,96.36
2022-12-04T17:24:30.124Z,96.24
2022-12-04T17:26:58.777Z,95.40
2022-12-04T17:29:26.206Z,96.18
2022-12-04T17:31:54.468Z,95.90
2022-12-04T17:34:21.845Z,96.40
2022-12-04T17:36:49.812Z,96.00
2022-12-04T17:39:17.221Z,96.23
2022-12-04T17:41:46.332Z,96.38
2022-12-04T17:44:13.692Z,96.29
2022-12-04T17:46:41.676Z,96.10
2022-12-04T17:49:09.227Z,95.85
2022-12-04T17:51:37.047Z,95.33
2022-12-04T17:54:05.639Z,95.75
2022-12-04T17:56:34.570Z,95.88
2022-12-04T17:59:03.908Z,96.30
2022-12-04T18:01:32.007Z,96.50
2022-12-04T18:04:01.419Z,95.49
2022-12-04T18:06:31.441Z,95.35
2022-12-04T18:08:59.415Z,95.16
2022-12-04T18:11:29.255Z,95.68
2022-12-04T18:13:58.494Z,95.43
2022-12-04T18:16:29.856Z,95.25
2022-12-04T18:18:59.318Z,95.84
2022-12-04T18:21:28.089Z,95.33
2022-12-04T18:23:57.433Z,94.96
2022-12-04T18:26:27.442Z,94.97
2022-12-04T18:28:55.501Z,94.53
2022-12-04T18:31:23.608Z,94.26
2022-12-04T18:33:52.533Z,93.91
2022-12-04T18:36:23.095Z,93.37
2022-12-04T18:38:54.394Z,93.06
2022-12-04T18:41:22.780Z,93.19
2022-12-04T18:43:51.088Z,93.11
2022-12-04T18:46:19.528Z,93.00
2022-12-04T18:48:48.281Z,92.47
2022-12-04T18:51:21.441Z,92.76
2022-12-04T18:53:52.823Z,93.02
2022-12-04T18:59:08.568Z,93.17
2022-12-04T19:01:36.948Z,93.45
2022-12-04T19:04:07.411Z,93.38
2022-12-04T19:06:38.855Z,93.06
2022-12-04T19:09:10.275Z,93.31
2022-12-04T19:11:39.074Z,93.96
2022-12-04T19:14:16.211Z,94.34
2022-12-04T19:16:49.028Z,94.30
2022-12-04T19:19:16.986Z,94.52
2022-12-04T19:21:46.903Z,94.91
2022-12-04T19:24:15.102Z,95.13
2022-12-04T19:26:44.938Z,94.95
2022-12-04T19:29:15.110Z,95.07
2022-12-04T19:31:43.936Z,94.61
2022-12-04T19:34:12.486Z,93.59
2022-12-04T19:36:40.988Z,93.84
2022-12-04T19:39:10.803Z,93.90
2022-12-04T19:41:38.952Z,93.13
2022-12-04T19:44:39.655Z,93.01
2022-12-04T19:46:55.160Z,92.77
2022-12-04T19:49:23.273Z,93.29
2022-12-04T19:51:51.838Z,94.80
2022-12-04T19:54:20.875Z,93.98
2022-12-04T19:56:50.673Z,93.54
2022-12-04T19:59:20.349Z,92.50
2022-12-04T20:01:48.583Z,92.94
2022-12-04T20:04:16.183Z,93.01
2022-12-04T20:06:45.905Z,93.89
2022-12-04T20:09:15.863Z,94.76
2022-12-04T20:11:45.679Z,94.02
2022-12-04T20:14:13.670Z,93.40
2022-12-04T20:16:41.652Z,94.16
2022-12-04T20:19:13.473Z,94.80
2022-12-04T20:21:41.638Z,94.52
2022-12-04T20:24:12.404Z,94.79
2022-12-04T20:26:42.380Z,95.10
2022-12-04T20:29:14.964Z,95.52
2022-12-04T20:31:44.953Z,95.50
2022-12-04T20:34:14.233Z,95.91
2022-12-04T20:36:44.318Z,95.98
2022-12-04T20:39:13.178Z,95.72
2022-12-04T20:41:41.470Z,95.56
2022-12-04T20:44:15.093Z,95.13
2022-12-04T20:46:43.358Z,95.15
2022-12-04T20:49:18.773Z,94.82
2022-12-04T20:51:49.842Z,95.10
2022-12-04T20:54:19.434Z,95.34
2022-12-04T20:56:48.079Z,95.09
2022-12-04T20:59:19.031Z,94.84
2022-12-04T21:01:48.525Z,95.17
2022-12-04T21:04:16.150Z,95.17
2022-12-04T21:06:45.103Z,95.35
2022-12-04T21:09:14.150Z,95.33
2022-12-04T21:11:44.985Z,95.24
2022-12-04T21:14:15.441Z,95.42
2022-12-04T21:16:45.511Z,95.11
2022-12-04T21:19:16.001Z,95.39
2022-12-04T21:21:44.300Z,95.06
2022-12-04T21:24:13.891Z,95.58
2022-12-04T21:26:41.973Z,95.28
2022-12-04T21:29:09.822Z,95.98
2022-12-04T21:31:38.198Z,95.67
2022-12-04T21:34:10.471Z,95.39
2022-12-04T21:36:38.548Z,94.60
2022-12-04T21:39:06.608Z,94.86
2022-12-04T21:41:34.291Z,95.34
2022-12-04T21:44:03.850Z,95.47
2022-12-04T21:46:31.578Z,95.72
2022-12-04T21:48:59.516Z,95.99
2022-12-04T21:51:55.819Z,96.37
2022-12-04T21:54:16.011Z,96.61
2022-12-04T21:56:43.918Z,96.12
2022-12-04T21:59:11.383Z,95.91
2022-12-04T22:01:39.680Z,96.08
2022-12-04T22:04:07.079Z,96.21
2022-12-04T22:06:36.471Z,96.20
2022-12-04T22:09:07.529Z,95.78
2022-12-04T22:11:35.552Z,95.75
2022-12-04T22:14:02.930Z,96.49
2022-12-04T22:16:32.192Z,96.85
2022-12-04T22:19:01.365Z,97.19
2022-12-04T22:21:29.381Z,98.06
2022-12-04T22:24:00.392Z,97.87
2022-12-04T22:26:29.808Z,97.91
2022-12-04T22:28:57.446Z,97.64
2022-12-04T22:31:27.606Z,98.19
2022-12-04T22:33:57.125Z,97.98
2022-12-04T22:36:27.373Z,97.64
2022-12-04T22:39:10.978Z,97.98
2022-12-04T22:41:40.539Z,98.14
2022-12-04T22:44:07.934Z,97.83
2022-12-04T22:46:36.079Z,98.20
2022-12-04T22:49:03.711Z,98.21
2022-12-04T22:51:31.565Z,97.62
2022-12-04T22:53:58.960Z,97.76
2022-12-04T22:56:29.164Z,97.09
2022-12-04T22:58:59.460Z,97.62
2022-12-04T23:01:28.878Z,97.17
2022-12-04T23:03:57.128Z,96.43
2022-12-04T23:06:27.741Z,96.69
2022-12-04T23:08:59.040Z,97.15
2022-12-04T23:11:27.724Z,96.56
2022-12-04T23:13:58.334Z,96.83
2022-12-04T23:16:27.419Z,96.79
2022-12-04T23:18:54.934Z,96.28
2022-12-04T23:21:23.780Z,96.10
2022-12-04T23:23:52.346Z,96.19
2022-12-04T23:26:22.438Z,96.50
2022-12-04T23:28:49.886Z,96.41
2022-12-04T23:31:19.524Z,96.61
2022-12-04T23:33:47.022Z,96.96
2022-12-04T23:36:14.966Z,96.53
2022-12-04T23:38:44.368Z,96.80
2022-12-04T23:41:14.019Z,97.15
2022-12-04T23:43:42.145Z,96.52
2022-12-04T23:46:12.490Z,96.34
2022-12-04T23:48:43.273Z,96.96
2022-12-04T23:51:13.875Z,97.41
2022-12-04T23:53:41.805Z,96.46
2022-12-04T23:56:12.695Z,97.09
2022-12-04T23:58:41.263Z,97.16
